createdAt,value
2019-01-30T00:01:56.336Z,56.70
2019-01-30T00:04:36.630Z,56.70
2019-01-30T00:07:16.745Z,57.20
2019-01-30T00:09:56.857Z,56.60
2019-01-30T00:12:36.911Z,57.50
2019-01-30T00:15:17.076Z,57.30
2019-01-30T00:17:57.025Z,57.00
2019-01-30T00:20:38.704Z,57.10
2019-01-30T00:23:18.336Z,57.70
2019-01-30T00:25:58.583Z,58.00
2019-01-30T00:28:38.767Z,58.20
2019-01-30T00:31:18.656Z,58.40
2019-01-30T00:33:58.900Z,59.30
2019-01-30T00:36:38.837Z,59.50
2019-01-30T00:39:18.994Z,58.50
2019-01-30T00:41:59.130Z,59.60
2019-01-30T00:44:39.142Z,60.00
2019-01-30T00:47:19.598Z,60.50
2019-01-30T00:49:59.559Z,60.60
2019-01-30T00:52:39.657Z,60.80
2019-01-30T00:55:19.815Z,60.90
2019-01-30T00:58:00.085Z,61.30
2019-01-30T01:00:39.793Z,62.70
2019-01-30T01:03:19.860Z,62.50
2019-01-30T01:05:59.848Z,60.60
2019-01-30T01:08:39.728Z,62.20
2019-01-30T01:11:19.864Z,61.70
2019-01-30T01:14:00.018Z,62.10
2019-01-30T01:16:40.380Z,62.70
2019-01-30T01:19:20.874Z,63.30
2019-01-30T01:22:00.745Z,62.90
2019-01-30T01:24:40.916Z,62.30
2019-01-30T01:27:20.810Z,62.60
2019-01-30T01:30:01.262Z,62.80
2019-01-30T01:32:41.345Z,62.70
2019-01-30T01:35:21.540Z,61.20
2019-01-30T01:38:01.500Z,61.90
2019-01-30T01:40:41.539Z,62.80
2019-01-30T01:43:21.705Z,63.00
2019-01-30T01:46:02.051Z,62.60
2019-01-30T01:48:42.149Z,63.60
2019-01-30T01:51:22.120Z,63.10
2019-01-30T01:54:02.214Z,62.70
2019-01-30T01:56:42.306Z,63.10
2019-01-30T01:59:22.198Z,62.70
2019-01-30T02:02:02.379Z,64.80
2019-01-30T02:04:42.837Z,64.30
2019-01-30T02:07:22.656Z,64.80
2019-01-30T02:10:02.645Z,64.10
2019-01-30T02:12:43.172Z,62.40
2019-01-30T02:15:22.888Z,63.20
2019-01-30T02:18:02.803Z,62.70
2019-01-30T02:20:43.019Z,63.50
2019-01-30T02:23:23.328Z,64.20
2019-01-30T02:26:03.250Z,64.10
2019-01-30T02:28:43.663Z,64.20
2019-01-30T02:31:23.729Z,64.90
2019-01-30T02:34:04.076Z,65.20
2019-01-30T02:37:03.849Z,65.20
2019-01-30T02:39:43.861Z,64.20
2019-01-30T02:42:24.824Z,65.10
2019-01-30T02:45:04.931Z,65.80
2019-01-30T02:47:44.924Z,65.90
2019-01-30T02:50:25.261Z,65.50
2019-01-30T02:53:05.100Z,65.80
2019-01-30T02:55:45.606Z,65.50
2019-01-30T02:58:25.414Z,65.60
2019-01-30T03:01:05.696Z,66.00
2019-01-30T03:03:45.622Z,65.70
2019-01-30T03:06:25.666Z,65.70
2019-01-30T03:09:05.851Z,66.10
2019-01-30T03:11:45.762Z,66.40
2019-01-30T03:14:25.800Z,65.80
2019-01-30T03:17:06.271Z,66.90
2019-01-30T03:19:46.038Z,66.40
2019-01-30T03:22:25.834Z,65.80
2019-01-30T03:25:05.881Z,66.30
2019-01-30T03:27:46.216Z,66.90
2019-01-30T03:30:26.207Z,66.40
2019-01-30T03:33:06.716Z,65.90
2019-01-30T03:35:46.260Z,66.10
2019-01-30T03:38:26.575Z,66.20
2019-01-30T03:41:06.269Z,67.00
2019-01-30T03:43:46.404Z,67.00
2019-01-30T03:46:26.394Z,66.50
2019-01-30T03:49:06.849Z,67.10
2019-01-30T03:51:46.613Z,67.20
2019-01-30T03:54:27.177Z,67.00
2019-01-30T03:57:07.604Z,67.10
2019-01-30T03:59:48.805Z,67.20
2019-01-30T04:02:28.613Z,67.00
2019-01-30T04:05:08.727Z,67.20
2019-01-30T04:07:48.710Z,67.90
2019-01-30T04:10:29.022Z,67.80
2019-01-30T04:13:08.741Z,67.20
2019-01-30T04:15:48.691Z,67.60
2019-01-30T04:18:29.142Z,67.30
2019-01-30T04:21:09.661Z,66.50
2019-01-30T04:23:49.509Z,66.70
2019-01-30T04:26:29.436Z,68.10
2019-01-30T04:29:09.716Z,68.10
2019-01-30T04:31:49.355Z,68.20
2019-01-30T04:34:29.258Z,67.50
2019-01-30T04:37:09.316Z,67.40
2019-01-30T04:39:49.358Z,68.40
2019-01-30T04:42:29.527Z,68.10
2019-01-30T04:45:09.677Z,67.90
2019-01-30T04:47:49.451Z,68.50
2019-01-30T04:50:31.040Z,67.40
2019-01-30T04:53:10.908Z,67.90
2019-01-30T04:55:50.861Z,67.30
2019-01-30T04:58:30.796Z,66.80
2019-01-30T05:01:10.809Z,67.50
2019-01-30T05:03:50.790Z,67.90
2019-01-30T05:06:31.204Z,68.20
2019-01-30T05:09:11.115Z,67.60
2019-01-30T05:11:51.265Z,68.20
2019-01-30T05:14:31.414Z,67.60
2019-01-30T05:17:11.635Z,68.50
2019-01-30T05:19:51.774Z,68.00
2019-01-30T05:22:32.056Z,67.80
2019-01-30T05:25:12.163Z,68.10
2019-01-30T05:27:52.707Z,67.90
2019-01-30T05:30:32.491Z,68.10
2019-01-30T05:33:12.741Z,68.30
2019-01-30T05:35:52.505Z,68.70
2019-01-30T05:38:32.628Z,68.50
2019-01-30T05:41:12.563Z,67.60
2019-01-30T05:43:52.655Z,67.30
2019-01-30T05:46:32.890Z,67.10
2019-01-30T05:49:12.642Z,67.30
2019-01-30T05:51:52.687Z,67.50
2019-01-30T05:54:32.836Z,67.60
2019-01-30T05:57:12.769Z,68.00
2019-01-30T05:59:52.844Z,68.20
2019-01-30T06:02:33.111Z,68.60
2019-01-30T06:05:12.787Z,68.70
2019-01-30T06:07:52.912Z,68.50
2019-01-30T06:10:33.310Z,68.70
2019-01-30T06:13:13.128Z,68.80
2019-01-30T06:15:53.079Z,69.00
2019-01-30T06:18:33.357Z,72.20
2019-01-30T06:21:13.336Z,69.30
2019-01-30T06:23:53.601Z,68.90
2019-01-30T06:26:33.936Z,68.40
2019-01-30T06:29:14.144Z,68.30
2019-01-30T06:31:54.013Z,68.10
2019-01-30T06:37:14.136Z,66.80
2019-01-30T06:39:54.098Z,66.30
2019-01-30T06:42:34.264Z,65.40
2019-01-30T06:45:14.506Z,64.60
2019-01-30T06:47:54.320Z,63.70
2019-01-30T06:50:34.464Z,63.50
2019-01-30T06:53:14.734Z,63.20
2019-01-30T06:55:55.168Z,63.30
2019-01-30T06:58:35.329Z,63.50
2019-01-30T07:01:15.505Z,63.30
2019-01-30T07:03:56.673Z,63.50
2019-01-30T07:06:36.928Z,63.40
2019-01-30T07:09:16.729Z,63.50
2019-01-30T07:11:56.812Z,63.40
2019-01-30T07:17:17.069Z,63.30
2019-01-30T07:19:56.720Z,63.10
2019-01-30T07:22:36.771Z,62.50
2019-01-30T07:25:16.986Z,62.60
2019-01-30T07:27:57.082Z,62.20
2019-01-30T07:30:37.337Z,62.00
2019-01-30T07:33:17.117Z,62.10
2019-01-30T07:35:57.096Z,62.20
2019-01-30T07:38:37.318Z,62.30
2019-01-30T07:41:17.786Z,62.10
2019-01-30T07:43:57.724Z,62.20
2019-01-30T07:46:37.717Z,62.20
2019-01-30T07:49:18.403Z,62.30
2019-01-30T07:51:59.196Z,62.30
2019-01-30T07:54:39.090Z,62.10
2019-01-30T07:57:19.148Z,62.20
2019-01-30T07:59:59.313Z,62.40
2019-01-30T08:02:39.909Z,62.50
2019-01-30T08:05:22.571Z,62.20
2019-01-30T08:08:05.349Z,62.50
2019-01-30T08:10:45.381Z,62.40
2019-01-30T08:13:25.658Z,62.70
2019-01-30T08:16:06.056Z,62.80
2019-01-30T08:18:45.924Z,62.50
2019-01-30T08:21:27.980Z,62.60
2019-01-30T08:24:08.150Z,62.90
2019-01-30T08:26:48.398Z,62.90
2019-01-30T08:29:29.014Z,63.10
2019-01-30T08:32:09.395Z,63.30
2019-01-30T08:34:49.649Z,63.50
2019-01-30T08:37:29.869Z,63.50
2019-01-30T08:40:09.921Z,63.30
2019-01-30T08:42:52.160Z,63.30
2019-01-30T08:45:32.373Z,63.30
2019-01-30T08:48:12.519Z,63.40
2019-01-30T08:50:52.273Z,63.60
2019-01-30T08:53:32.366Z,63.60
2019-01-30T08:56:12.288Z,64.00
2019-01-30T08:58:52.446Z,64.20
2019-01-30T09:01:33.201Z,64.40
2019-01-30T09:04:13.705Z,64.70
2019-01-30T09:06:53.842Z,65.00
2019-01-30T09:09:34.028Z,65.00
2019-01-30T09:12:13.779Z,65.20
2019-01-30T09:14:53.966Z,65.50
2019-01-30T09:17:33.896Z,65.50
2019-01-30T09:20:14.186Z,66.20
2019-01-30T09:22:54.132Z,65.50
2019-01-30T09:25:34.248Z,65.70
2019-01-30T09:28:13.957Z,65.80
2019-01-30T09:30:54.348Z,66.20
2019-01-30T09:33:34.236Z,66.30
2019-01-30T09:36:14.450Z,66.40
2019-01-30T09:38:54.477Z,66.50
2019-01-30T09:41:34.804Z,66.50
2019-01-30T09:44:14.897Z,66.80
2019-01-30T09:46:54.715Z,66.90
2019-01-30T09:49:34.972Z,66.40
2019-01-30T09:52:14.966Z,66.60
2019-01-30T09:54:54.957Z,66.60
2019-01-30T09:57:35.555Z,66.60
2019-01-30T10:00:15.565Z,66.20
2019-01-30T10:02:56.396Z,66.00
2019-01-30T10:05:36.111Z,66.20
2019-01-30T10:08:16.116Z,66.30
2019-01-30T10:10:56.312Z,66.20
2019-01-30T10:13:37.455Z,66.20
2019-01-30T10:16:18.908Z,66.20
2019-01-30T10:18:58.855Z,66.50
2019-01-30T10:21:38.946Z,66.30
2019-01-30T10:24:18.984Z,66.70
2019-01-30T10:26:59.098Z,66.60
2019-01-30T10:29:39.321Z,66.70
2019-01-30T10:32:19.322Z,66.00
2019-01-30T10:34:58.829Z,65.90
2019-01-30T10:37:39.184Z,66.00
2019-01-30T10:40:19.137Z,66.40
2019-01-30T10:42:59.429Z,66.60
2019-01-30T10:45:39.403Z,66.60
2019-01-30T10:48:19.547Z,66.90
2019-01-30T10:50:59.541Z,67.30
2019-01-30T10:53:39.667Z,67.60
2019-01-30T10:56:07.124Z,67.30
2019-01-30T10:58:54.468Z,67.10
2019-01-30T11:01:34.366Z,67.20
2019-01-30T11:04:14.248Z,67.70
2019-01-30T11:06:53.932Z,68.00
2019-01-30T11:09:34.216Z,68.60
2019-01-30T11:12:13.999Z,68.20
2019-01-30T11:14:54.127Z,68.60
2019-01-30T11:17:34.065Z,68.40
2019-01-30T11:20:13.963Z,68.50
2019-01-30T11:22:54.075Z,68.80
2019-01-30T11:25:34.144Z,69.50
2019-01-30T11:28:14.390Z,70.00
2019-01-30T11:30:54.131Z,70.20
2019-01-30T11:33:34.354Z,70.10
2019-01-30T11:36:14.163Z,70.60
2019-01-30T11:38:54.276Z,70.50
2019-01-30T11:41:34.296Z,71.00
2019-01-30T11:44:14.446Z,71.20
2019-01-30T11:46:54.581Z,71.60
2019-01-30T11:49:34.656Z,71.90
2019-01-30T11:52:14.628Z,72.90
2019-01-30T11:54:55.745Z,73.60
2019-01-30T11:57:36.393Z,74.20
2019-01-30T12:00:20.273Z,74.60
2019-01-30T12:03:00.070Z,75.00
2019-01-30T12:05:40.096Z,75.30
2019-01-30T12:08:20.063Z,75.70
2019-01-30T12:11:00.621Z,76.30
2019-01-30T12:13:40.508Z,75.80
2019-01-30T12:16:20.456Z,76.50
2019-01-30T12:19:00.770Z,76.70
2019-01-30T12:21:40.841Z,76.80
2019-01-30T12:24:21.091Z,76.40
2019-01-30T12:27:01.287Z,77.30
2019-01-30T12:29:41.037Z,77.10
2019-01-30T12:32:21.224Z,77.70
2019-01-30T12:35:01.390Z,78.10
2019-01-30T12:37:42.652Z,78.30
2019-01-30T12:40:22.620Z,78.30
2019-01-30T12:43:03.191Z,78.20
2019-01-30T12:45:43.222Z,78.50
2019-01-30T12:48:23.160Z,78.50
2019-01-30T12:51:03.260Z,77.90
2019-01-30T12:53:43.534Z,78.10
2019-01-30T12:56:23.315Z,78.30
2019-01-30T12:59:03.461Z,78.30
2019-01-30T13:01:43.274Z,78.30
2019-01-30T13:04:23.336Z,78.60
2019-01-30T13:07:03.354Z,78.30
2019-01-30T13:09:43.179Z,78.80
2019-01-30T13:12:23.436Z,78.30
2019-01-30T13:15:03.577Z,79.10
2019-01-30T13:17:43.808Z,78.60
2019-01-30T13:20:23.974Z,80.00
2019-01-30T13:23:03.533Z,79.50
2019-01-30T13:25:43.667Z,80.10
2019-01-30T13:28:23.671Z,80.10
2019-01-30T13:31:03.863Z,79.90
2019-01-30T13:33:44.308Z,79.60
2019-01-30T13:36:24.460Z,79.60
2019-01-30T13:39:04.128Z,79.90
2019-01-30T13:41:42.674Z,80.30
2019-01-30T13:44:29.657Z,80.80
2019-01-30T13:47:09.153Z,81.60
2019-01-30T13:49:49.386Z,82.00
2019-01-30T13:52:29.022Z,81.50
2019-01-30T13:55:09.270Z,82.00
2019-01-30T13:57:49.504Z,82.50
2019-01-30T14:00:29.419Z,81.80
2019-01-30T14:03:09.388Z,81.70
2019-01-30T14:05:49.258Z,81.40
2019-01-30T14:08:29.853Z,81.70
2019-01-30T14:11:09.830Z,81.80
2019-01-30T14:13:49.851Z,81.40
2019-01-30T14:16:30.031Z,81.80
2019-01-30T14:19:09.940Z,81.90
2019-01-30T14:21:49.840Z,81.80
2019-01-30T14:24:30.099Z,81.10
2019-01-30T14:27:10.329Z,81.20
2019-01-30T14:29:58.187Z,80.40
2019-01-30T14:32:32.176Z,81.10
2019-01-30T14:35:12.528Z,80.50
2019-01-30T14:37:52.188Z,81.00
2019-01-30T14:40:32.350Z,81.20
2019-01-30T14:43:12.424Z,81.00
2019-01-30T14:45:52.496Z,81.60
2019-01-30T14:48:32.724Z,81.40
2019-01-30T14:51:12.830Z,81.80
2019-01-30T14:53:53.114Z,81.70
2019-01-30T14:56:33.201Z,81.00
2019-01-30T14:59:13.105Z,80.40
2019-01-30T15:01:52.953Z,79.50
2019-01-30T15:04:33.458Z,79.30
2019-01-30T15:07:13.493Z,79.10
2019-01-30T15:09:53.375Z,79.80
2019-01-30T15:12:33.388Z,78.80
2019-01-30T15:15:13.669Z,78.70
2019-01-30T15:17:53.602Z,78.90
2019-01-30T15:20:33.575Z,77.60
2019-01-30T15:23:13.564Z,77.90
2019-01-30T15:25:53.470Z,76.90
2019-01-30T15:28:33.374Z,77.10
2019-01-30T15:31:13.901Z,76.60
2019-01-30T15:33:53.971Z,76.10
2019-01-30T15:36:34.001Z,74.80
2019-01-30T15:39:14.233Z,75.30
2019-01-30T15:41:54.849Z,75.90
2019-01-30T15:44:35.202Z,76.20
2019-01-30T15:47:15.210Z,75.70
2019-01-30T15:49:55.308Z,75.70
2019-01-30T15:52:36.405Z,73.50
2019-01-30T15:55:16.581Z,73.60
2019-01-30T15:57:56.407Z,73.00
2019-01-30T16:00:36.746Z,72.70
2019-01-30T16:03:16.407Z,69.60
2019-01-30T16:05:56.696Z,69.50
2019-01-30T16:08:36.819Z,65.70
2019-01-30T16:11:17.184Z,65.40
2019-01-30T16:13:57.217Z,62.90
2019-01-30T16:16:37.005Z,61.80
2019-01-30T16:19:17.274Z,61.20
2019-01-30T16:21:57.332Z,60.10
2019-01-30T16:24:37.620Z,60.50
2019-01-30T16:27:17.759Z,58.60
2019-01-30T16:29:57.608Z,57.50
2019-01-30T16:32:37.636Z,57.20
2019-01-30T16:35:18.083Z,57.60
2019-01-30T16:37:57.769Z,57.90
2019-01-30T16:40:38.732Z,56.90
2019-01-30T16:43:19.082Z,57.50
2019-01-30T16:45:58.989Z,56.10
2019-01-30T16:48:38.734Z,56.80
2019-01-30T16:51:19.180Z,57.60
2019-01-30T16:53:58.915Z,57.80
2019-01-30T16:56:39.188Z,58.30
2019-01-30T16:59:19.292Z,58.60
2019-01-30T17:01:59.480Z,58.10
2019-01-30T17:04:39.333Z,58.80
2019-01-30T17:07:19.532Z,57.80
2019-01-30T17:09:59.652Z,58.50
2019-01-30T17:12:39.756Z,58.80
2019-01-30T17:15:19.869Z,58.40
2019-01-30T17:18:00.064Z,58.60
2019-01-30T17:20:38.272Z,59.30
2019-01-30T17:23:25.260Z,59.10
2019-01-30T17:26:04.096Z,59.70
2019-01-30T17:28:51.337Z,59.40
2019-01-30T17:31:31.837Z,59.40
2019-01-30T17:33:59.421Z,60.90
2019-01-30T17:36:46.357Z,59.60
2019-01-30T17:39:26.044Z,58.80
2019-01-30T17:42:06.118Z,58.70
2019-01-30T17:44:46.120Z,58.80
2019-01-30T17:47:26.101Z,58.80
2019-01-30T17:50:06.216Z,58.80
2019-01-30T17:52:46.894Z,59.10
2019-01-30T17:55:26.757Z,58.40
2019-01-30T17:58:06.600Z,59.40
2019-01-30T18:03:47.072Z,58.90
2019-01-30T18:06:29.943Z,58.20
2019-01-30T18:09:09.431Z,58.00
2019-01-30T18:11:49.676Z,58.70
2019-01-30T18:14:29.768Z,59.30
2019-01-30T18:17:09.460Z,57.80
2019-01-30T18:19:49.476Z,57.80
2019-01-30T18:22:29.633Z,58.00
2019-01-30T18:25:09.987Z,57.30
2019-01-30T18:27:49.689Z,57.20
2019-01-30T18:30:29.920Z,57.30
2019-01-30T18:33:09.601Z,57.30
2019-01-30T18:35:50.043Z,57.60
2019-01-30T18:38:29.756Z,57.70
2019-01-30T18:41:09.662Z,58.20
2019-01-30T18:43:50.465Z,58.20
2019-01-30T18:46:28.916Z,58.10
2019-01-30T18:49:16.060Z,58.50
2019-01-30T18:51:56.248Z,58.80
2019-01-30T18:54:36.131Z,59.40
2019-01-30T18:57:16.295Z,60.10
2019-01-30T18:59:56.212Z,59.80
2019-01-30T19:02:36.342Z,59.60
2019-01-30T19:05:16.614Z,59.70
2019-01-30T19:07:56.282Z,59.80
2019-01-30T19:10:37.280Z,59.70
2019-01-30T19:13:17.357Z,59.60
2019-01-30T19:15:57.526Z,59.40
2019-01-30T19:18:37.499Z,59.70
2019-01-30T19:21:17.287Z,59.60
2019-01-30T19:23:57.492Z,59.80
2019-01-30T19:26:37.703Z,59.50
2019-01-30T19:29:05.267Z,59.80
2019-01-30T19:32:14.276Z,59.90
2019-01-30T19:34:54.671Z,60.10
2019-01-30T19:37:34.686Z,60.50
2019-01-30T19:40:14.337Z,60.40
2019-01-30T19:42:54.700Z,60.40
2019-01-30T19:45:34.536Z,60.70
2019-01-30T19:48:14.798Z,60.30
2019-01-30T19:50:54.742Z,60.50
2019-01-30T19:53:34.575Z,60.80
2019-01-30T19:56:14.596Z,61.20
2019-01-30T19:58:54.647Z,60.80
2019-01-30T20:01:36.155Z,61.10
2019-01-30T20:04:16.720Z,60.80
2019-01-30T20:06:57.110Z,61.20
2019-01-30T20:09:36.810Z,61.30
2019-01-30T20:12:17.368Z,61.40
2019-01-30T20:14:57.119Z,61.70
2019-01-30T20:17:37.298Z,61.80
2019-01-30T20:20:17.227Z,61.70
2019-01-30T20:22:57.084Z,62.00
2019-01-30T20:25:37.377Z,62.30
2019-01-30T20:28:17.432Z,62.40
2019-01-30T20:30:57.509Z,62.60
2019-01-30T20:33:37.754Z,62.50
2019-01-30T20:36:17.304Z,62.40
2019-01-30T20:38:57.444Z,62.70
2019-01-30T20:41:37.664Z,62.80
2019-01-30T20:44:17.914Z,63.20
2019-01-30T20:46:57.651Z,62.80
2019-01-30T20:49:39.163Z,62.70
2019-01-30T20:52:19.180Z,62.80
2019-01-30T20:54:59.801Z,62.50
2019-01-30T20:57:40.308Z,62.30
2019-01-30T21:00:20.092Z,62.20
2019-01-30T21:03:00.361Z,62.00
2019-01-30T21:05:40.885Z,61.80
2019-01-30T21:08:20.941Z,62.00
2019-01-30T21:11:00.884Z,61.90
2019-01-30T21:13:41.502Z,62.20
2019-01-30T21:16:21.625Z,62.40
2019-01-30T21:19:01.407Z,62.40
2019-01-30T21:21:41.359Z,62.20
2019-01-30T21:24:21.587Z,62.40
2019-01-30T21:27:01.857Z,62.50
2019-01-30T21:29:42.249Z,62.50
2019-01-30T21:32:22.208Z,62.30
2019-01-30T21:35:03.619Z,62.60
2019-01-30T21:37:49.212Z,62.70
2019-01-30T21:40:25.541Z,62.60
2019-01-30T21:43:05.624Z,62.70
2019-01-30T21:45:45.586Z,62.70
2019-01-30T21:48:26.126Z,62.70
2019-01-30T21:51:06.104Z,63.00
2019-01-30T21:53:46.176Z,63.10
2019-01-30T21:56:26.259Z,63.10
2019-01-30T21:59:06.162Z,63.10
2019-01-30T22:01:46.358Z,63.20
2019-01-30T22:04:26.515Z,63.20
2019-01-30T22:07:06.469Z,63.10
2019-01-30T22:09:46.782Z,63.20
2019-01-30T22:12:26.630Z,63.20
2019-01-30T22:15:07.246Z,63.30
2019-01-30T22:17:47.812Z,63.20
2019-01-30T22:20:27.639Z,63.10
2019-01-30T22:23:07.839Z,63.10
2019-01-30T22:25:47.948Z,63.00
2019-01-30T22:28:27.898Z,63.00
2019-01-30T22:31:08.316Z,62.90
2019-01-30T22:33:48.593Z,62.60
2019-01-30T22:36:28.852Z,62.40
2019-01-30T22:39:08.763Z,62.30
2019-01-30T22:41:48.963Z,62.10
2019-01-30T22:44:28.928Z,61.90
2019-01-30T22:47:09.202Z,61.80
2019-01-30T22:49:49.381Z,61.70
2019-01-30T22:52:29.188Z,61.40
2019-01-30T22:55:09.553Z,61.30
2019-01-30T22:57:51.099Z,62.10
2019-01-30T23:04:17.309Z,61.20
2019-01-30T23:06:57.578Z,60.80
2019-01-30T23:09:37.744Z,60.60
2019-01-30T23:12:17.768Z,60.50
2019-01-30T23:14:59.733Z,60.90
2019-01-30T23:17:39.754Z,61.10
2019-01-30T23:20:22.576Z,61.20
2019-01-30T23:23:01.569Z,61.40
2019-01-30T23:25:41.636Z,61.40
2019-01-30T23:28:21.688Z,61.90
2019-01-30T23:31:02.038Z,61.30
2019-01-30T23:33:41.806Z,60.90
2019-01-30T23:36:21.912Z,60.90
2019-01-30T23:39:01.858Z,61.10
2019-01-30T23:41:43.843Z,61.10
2019-01-30T23:44:34.041Z,61.20
2019-01-30T23:47:40.490Z,61.40
2019-01-30T23:50:20.256Z,60.80
2019-01-30T23:53:00.499Z,60.80
2019-01-30T23:55:40.372Z,60.40
2019-01-30T23:58:20.374Z,60.20
